Datum - Zeit | Temperatur 2m | Temperatur 5cm | Taupunkt | Feuchte | Solar | Wind | aus Richtung | Windböen | Luftdruck (QFF) | Regen | Regenstärke | Trend |
| 05.09.2026 - 00.00Uhr | 23.6 °C | 16 °C | 62.0 % | 9.7 km/h | Süden | 16.2 km/h | 1011.5 hPa | 0.0 mm | 0.0 mm/h | sonnig | ||
| 05.09.2026 - 00.05Uhr | 23.4 °C | 16 °C | 62.0 % | 10.7 km/h | Süden | 16.2 km/h | 1010.0 hPa | 0.0 mm | 0.0 mm/h | sonnig | ||
| 05.09.2026 - 00.10Uhr | 23.6 °C | 16 °C | 61.4 % | 10.6 km/h | Süden | 16.2 km/h | 1010.8 hPa | 0.0 mm | 0.0 mm/h | sonnig | ||
| 05.09.2026 - 00.15Uhr | 23.6 °C | 16 °C | 61.3 % | 10.0 km/h | Süden | 14.4 km/h | 1010.8 hPa | 0.0 mm | 0.0 mm/h | sonnig | ||
| 05.09.2026 - 00.20Uhr | 23.2 °C | 16 °C | 62.7 % | 9.0 km/h | Süden | 14.4 km/h | 1010.7 hPa | 0.0 mm | 0.0 mm/h | sonnig | ||
| 05.09.2026 - 00.25Uhr | 23.1 °C | 16 °C | 62.9 % | 11.8 km/h | Süd-SW | 17.6 km/h | 1009.9 hPa | 0.0 mm | 0.0 mm/h | sonnig | ||
| 05.09.2026 - 00.30Uhr | 23.4 °C | 16 °C | 61.5 % | 12.1 km/h | Süden | 17.6 km/h | 1007.2 hPa | 0.0 mm | 0.0 mm/h | sonnig | ||
| 05.09.2026 - 00.35Uhr | 23.8 °C | 16 °C | 61.0 % | 12.0 km/h | Süden | 17.6 km/h | 1009.9 hPa | 0.0 mm | 0.0 mm/h | sonnig | ||
| 05.09.2026 - 00.40Uhr | 23.8 °C | 16 °C | 60.4 % | 12.1 km/h | Süden | 17.6 km/h | 1010.7 hPa | 0.0 mm | 0.0 mm/h | sonnig | ||
| 05.09.2026 - 00.45Uhr | 23.6 °C | 16 °C | 61.0 % | 14.3 km/h | Süden | 19.4 km/h | 1011.8 hPa | 0.0 mm | 0.0 mm/h | sonnig | ||
| 05.09.2026 - 00.50Uhr | 23.8 °C | 16 °C | 60.1 % | 14.1 km/h | Süden | 17.6 km/h | 1008.8 hPa | 0.0 mm | 0.0 mm/h | sonnig | ||
| 05.09.2026 - 00.55Uhr | 24.1 °C | 16 °C | 59.3 % | 14.0 km/h | Süd-SW | 19.4 km/h | 1010.7 hPa | 0.0 mm | 0.0 mm/h | sonnig | ||
| 05.09.2026 - 01.00Uhr | 24.1 °C | 16 °C | 59.0 % | 12.2 km/h | Süd-SW | 16.2 km/h | 1009.9 hPa | 0.0 mm | 0.0 mm/h | wechselhaft | ||
| 05.09.2026 - 01.05Uhr | 24.0 °C | 16 °C | 59.5 % | 13.8 km/h | Süd-SW | 17.6 km/h | 1010.7 hPa | 0.0 mm | 0.0 mm/h | wechselhaft | ||
| 05.09.2026 - 01.10Uhr | 24.2 °C | 16 °C | 59.0 % | 12.4 km/h | Süd-SW | 16.2 km/h | 1011.8 hPa | 0.0 mm | 0.0 mm/h | wechselhaft | ||
| 05.09.2026 - 01.15Uhr | 24.1 °C | 16 °C | 59.8 % | 11.9 km/h | Süden | 16.2 km/h | 1009.9 hPa | 0.0 mm | 0.0 mm/h | wechselhaft | ||
| 05.09.2026 - 01.20Uhr | 23.9 °C | 16 °C | 60.4 % | 11.0 km/h | Süden | 16.2 km/h | 1011.8 hPa | 0.0 mm | 0.0 mm/h | wechselhaft | ||
| 05.09.2026 - 01.25Uhr | 23.8 °C | 16 °C | 61.0 % | 10.4 km/h | Süden | 16.2 km/h | 1009.9 hPa | 0.0 mm | 0.0 mm/h | wechselhaft | ||
| 05.09.2026 - 01.30Uhr | 23.7 °C | 16 °C | 61.0 % | 9.8 km/h | Süd-SW | 16.2 km/h | 1008.8 hPa | 0.0 mm | 0.0 mm/h | wechselhaft | ||
| 05.09.2026 - 01.35Uhr | 23.6 °C | 16 °C | 61.0 % | 11.7 km/h | Süd-SW | 17.6 km/h | 1012.4 hPa | 0.0 mm | 0.0 mm/h | wechselhaft | ||
| 05.09.2026 - 01.40Uhr | 23.9 °C | 16 °C | 60.3 % | 10.0 km/h | Süd-SW | 16.2 km/h | 1011.5 hPa | 0.0 mm | 0.0 mm/h | wechselhaft | ||
| 05.09.2026 - 01.45Uhr | 24.0 °C | 16 °C | 60.0 % | 9.0 km/h | Süd-SW | 16.2 km/h | 1010.8 hPa | 0.0 mm | 0.0 mm/h | wechselhaft | ||
| 05.09.2026 - 01.50Uhr | 23.9 °C | 16 °C | 60.3 % | 9.1 km/h | Süd-SW | 16.2 km/h | 1007.4 hPa | 0.0 mm | 0.0 mm/h | wechselhaft | ||
| 05.09.2026 - 01.55Uhr | 24.2 °C | 16 °C | 59.0 % | 11.3 km/h | Süd-SW | 17.6 km/h | 1010.8 hPa | 0.0 mm | 0.0 mm/h | wechselhaft | ||
| 05.09.2026 - 02.00Uhr | 24.3 °C | 16 °C | 59.0 % | 11.3 km/h | Süd-SW | 19.4 km/h | 1011.5 hPa | 0.0 mm | 0.0 mm/h | wechselhaft | ||
| 05.09.2026 - 02.05Uhr | 24.4 °C | 16 °C | 58.4 % | 11.1 km/h | Süd-SW | 19.4 km/h | 1011.5 hPa | 0.0 mm | 0.0 mm/h | wechselhaft | ||
| 05.09.2026 - 02.10Uhr | 24.6 °C | 16 °C | 57.9 % | 11.3 km/h | Süd-SW | 20.9 km/h | 1010.9 hPa | 0.0 mm | 0.0 mm/h | wechselhaft | ||
| 05.09.2026 - 02.15Uhr | 24.6 °C | 16 °C | 57.1 % | 5.3 km/h | Südwesten | 11.2 km/h | 1010.0 hPa | 0.0 mm | 0.0 mm/h | wechselhaft | ||
| 05.09.2026 - 02.20Uhr | 24.7 °C | 15 °C | 56.4 % | 6.1 km/h | Süd-SW | 14.4 km/h | 1008.9 hPa | 0.0 mm | 0.0 mm/h | wechselhaft | ||
| 05.09.2026 - 02.25Uhr | 24.8 °C | 15 °C | 55.8 % | 5.3 km/h | Südwesten | 16.2 km/h | 1012.3 hPa | 0.0 mm | 0.0 mm/h | wechselhaft | ||
| 05.09.2026 - 02.30Uhr | 24.8 °C | 15 °C | 56.0 % | 4.2 km/h | Südwesten | 13.0 km/h | 1011.4 hPa | 0.0 mm | 0.0 mm/h | wechselhaft | ||
| 05.09.2026 - 02.35Uhr | 24.6 °C | 15 °C | 56.1 % | 4.1 km/h | Südwesten | 9.7 km/h | 1011.5 hPa | 0.0 mm | 0.0 mm/h | wechselhaft | ||
| 05.09.2026 - 02.40Uhr | 24.5 °C | 15 °C | 56.9 % | 4.1 km/h | Südwesten | 13.0 km/h | 1011.9 hPa | 0.0 mm | 0.0 mm/h | wechselhaft | ||
| 05.09.2026 - 02.45Uhr | 24.4 °C | 15 °C | 57.0 % | 4.3 km/h | Südwesten | 9.7 km/h | 1008.9 hPa | 0.0 mm | 0.0 mm/h | wechselhaft | ||
| 05.09.2026 - 02.50Uhr | 24.3 °C | 15 °C | 57.0 % | 3.0 km/h | Südwesten | 9.7 km/h | 1007.5 hPa | 0.0 mm | 0.0 mm/h | wechselhaft | ||
| 05.09.2026 - 02.55Uhr | 24.2 °C | 15 °C | 57.2 % | 3.1 km/h | Südwesten | 9.7 km/h | 1009.1 hPa | 0.0 mm | 0.0 mm/h | wechselhaft | ||
| 05.09.2026 - 03.00Uhr | 24.1 °C | 15 °C | 57.8 % | 2.5 km/h | Südwesten | 7.9 km/h | 1010.2 hPa | 0.0 mm | 0.0 mm/h | wechselhaft | ||
| 05.09.2026 - 03.05Uhr | 24.0 °C | 15 °C | 58.3 % | 7.4 km/h | Süd-SW | 14.4 km/h | 1011.0 hPa | 0.0 mm | 0.0 mm/h | wechselhaft | ||
| 05.09.2026 - 03.10Uhr | 23.9 °C | 15 °C | 58.9 % | 6.4 km/h | Süd-SW | 14.4 km/h | 1011.0 hPa | 0.0 mm | 0.0 mm/h | wechselhaft | ||
| 05.09.2026 - 03.15Uhr | 23.8 °C | 15 °C | 58.4 % | 4.9 km/h | Südwesten | 13.0 km/h | 1012.1 hPa | 0.0 mm | 0.0 mm/h | wechselhaft | ||
| 05.09.2026 - 03.20Uhr | 23.8 °C | 15 °C | 58.4 % | 2.3 km/h | Südwesten | 7.9 km/h | 1011.0 hPa | 0.0 mm | 0.0 mm/h | wechselhaft | ||
| 05.09.2026 - 03.25Uhr | 23.7 °C | 15 °C | 59.0 % | 3.1 km/h | Südwesten | 7.9 km/h | 1011.7 hPa | 0.0 mm | 0.0 mm/h | wechselhaft | ||
| 05.09.2026 - 03.30Uhr | 23.5 °C | 15 °C | 59.2 % | 3.9 km/h | Südwesten | 13.0 km/h | 1011.6 hPa | 0.0 mm | 0.0 mm/h | wechselhaft | ||
| 05.09.2026 - 03.35Uhr | 23.4 °C | 15 °C | 59.0 % | 2.8 km/h | Südwesten | 7.9 km/h | 1010.1 hPa | 0.0 mm | 0.0 mm/h | wechselhaft | ||
| 05.09.2026 - 03.40Uhr | 23.3 °C | 15 °C | 59.4 % | 3.8 km/h | Südwesten | 14.4 km/h | 1011.0 hPa | 0.0 mm | 0.0 mm/h | wechselhaft | ||
| 05.09.2026 - 03.45Uhr | 23.3 °C | 15 °C | 59.3 % | 3.6 km/h | West-SW | 7.9 km/h | 1010.2 hPa | 0.0 mm | 0.0 mm/h | wechselhaft | ||
| 05.09.2026 - 03.50Uhr | 23.4 °C | 15 °C | 58.6 % | 4.7 km/h | Westen | 9.7 km/h | 1009.2 hPa | 0.0 mm | 0.0 mm/h | wechselhaft | ||
| 05.09.2026 - 03.55Uhr | 23.5 °C | 15 °C | 58.8 % | 4.5 km/h | Südwesten | 14.4 km/h | 1010.4 hPa | 0.0 mm | 0.0 mm/h | wechselhaft | ||
| 05.09.2026 - 04.00Uhr | 23.4 °C | 15 °C | 58.9 % | 5.1 km/h | Westen | 13.0 km/h | 1007.8 hPa | 0.0 mm | 0.0 mm/h | wechselhaft | ||
| 05.09.2026 - 04.05Uhr | 23.6 °C | 15 °C | 57.7 % | 5.6 km/h | West-SW | 14.4 km/h | 1009.4 hPa | 0.0 mm | 0.0 mm/h | wechselhaft | ||
| 05.09.2026 - 04.10Uhr | 23.9 °C | 15 °C | 56.9 % | 4.0 km/h | West-SW | 11.2 km/h | 1010.5 hPa | 0.0 mm | 0.0 mm/h | wechselhaft | ||
| 05.09.2026 - 04.15Uhr | 23.8 °C | 15 °C | 57.0 % | 7.2 km/h | Westen | 20.9 km/h | 1010.6 hPa | 0.0 mm | 0.0 mm/h | wechselhaft | ||
| 05.09.2026 - 04.20Uhr | 23.8 °C | 15 °C | 56.9 % | 9.0 km/h | Westen | 17.6 km/h | 1012.0 hPa | 0.0 mm | 0.0 mm/h | wechselhaft | ||
| 05.09.2026 - 04.25Uhr | 23.9 °C | 15 °C | 56.0 % | 9.4 km/h | Westen | 16.2 km/h | 1012.0 hPa | 0.0 mm | 0.0 mm/h | wechselhaft | ||
| 05.09.2026 - 04.30Uhr | 23.8 °C | 15 °C | 56.9 % | 9.3 km/h | West-SW | 19.4 km/h | 1010.6 hPa | 0.0 mm | 0.0 mm/h | wechselhaft | ||
| 05.09.2026 - 04.35Uhr | 23.6 °C | 15 °C | 57.0 % | 9.9 km/h | Westen | 16.2 km/h | 1012.2 hPa | 0.0 mm | 0.0 mm/h | wechselhaft | ||
| 05.09.2026 - 04.40Uhr | 23.5 °C | 15 °C | 57.6 % | 9.2 km/h | Westen | 16.2 km/h | 1010.7 hPa | 0.0 mm | 0.0 mm/h | wechselhaft | ||
| 05.09.2026 - 04.45Uhr | 23.3 °C | 15 °C | 58.7 % | 7.1 km/h | Westen | 13.0 km/h | 1012.3 hPa | 0.0 mm | 0.0 mm/h | wechselhaft | ||
| 05.09.2026 - 04.50Uhr | 23.0 °C | 15 °C | 59.7 % | 6.5 km/h | Westen | 11.2 km/h | 1011.8 hPa | 0.0 mm | 0.0 mm/h | wechselhaft | ||
| 05.09.2026 - 04.55Uhr | 22.8 °C | 15 °C | 60.6 % | 4.8 km/h | Westen | 9.7 km/h | 1011.9 hPa | 0.0 mm | 0.0 mm/h | wechselhaft | ||
| 05.09.2026 - 05.00Uhr | 22.4 °C | 15 °C | 62.1 % | 2.0 km/h | Westen | 4.7 km/h | 1012.0 hPa | 0.0 mm | 0.0 mm/h | wechselhaft | ||
| 05.09.2026 - 05.05Uhr | 22.1 °C | 15 °C | 63.0 % | 3.6 km/h | West-NW | 6.5 km/h | 1012.1 hPa | 0.0 mm | 0.0 mm/h | wechselhaft | ||
| 05.09.2026 - 05.10Uhr | 22.1 °C | 15 °C | 63.7 % | 4.3 km/h | West-NW | 6.5 km/h | 1011.5 hPa | 0.0 mm | 0.0 mm/h | wechselhaft | ||
| 05.09.2026 - 05.15Uhr | 21.9 °C | 15 °C | 64.0 % | 5.4 km/h | West-NW | 9.7 km/h | 1011.6 hPa | 0.0 mm | 0.0 mm/h | wechselhaft | ||
| 05.09.2026 - 05.20Uhr | 21.9 °C | 15 °C | 64.0 % | 6.7 km/h | West-NW | 11.2 km/h | 1013.2 hPa | 0.0 mm | 0.0 mm/h | wechselhaft | ||
| 05.09.2026 - 05.25Uhr | 21.7 °C | 15 °C | 65.2 % | 4.2 km/h | Westen | 9.7 km/h | 1009.1 hPa | 0.0 mm | 0.0 mm/h | wechselhaft | ||
| 05.09.2026 - 05.30Uhr | 21.4 °C | 15 °C | 66.8 % | 2.3 km/h | West-SW | 6.5 km/h | 1011.8 hPa | 0.0 mm | 0.0 mm/h | wechselhaft | ||
| 05.09.2026 - 05.35Uhr | 21.0 °C | 15 °C | 68.0 % | 3.6 km/h | West-SW | 6.5 km/h | 1012.7 hPa | 0.0 mm | 0.0 mm/h | wechselhaft | ||
| 05.09.2026 - 05.40Uhr | 20.9 °C | 15 °C | 68.0 % | 3.2 km/h | West-SW | 6.5 km/h | 1012.0 hPa | 0.0 mm | 0.0 mm/h | wechselhaft | ||
| 05.09.2026 - 05.45Uhr | 20.9 °C | 15 °C | 68.2 % | 1.5 km/h | West-SW | 4.7 km/h | 1012.1 hPa | 0.0 mm | 0.0 mm/h | wechselhaft | ||
| 05.09.2026 - 05.50Uhr | 20.8 °C | 15 °C | 69.0 % | 0.7 km/h | West-SW | 3.2 km/h | 1013.6 hPa | 0.0 mm | 0.0 mm/h | wechselhaft | ||
| 05.09.2026 - 05.55Uhr | 20.7 °C | 15 °C | 70.0 % | 1.7 km/h | West-SW | 4.7 km/h | 1012.3 hPa | 0.0 mm | 0.0 mm/h | wechselhaft | ||
| 05.09.2026 - 06.00Uhr | 20.5 °C | 15 °C | 71.0 % | 2.0 km/h | Südwesten | 6.5 km/h | 1014.2 hPa | 0.0 mm | 0.0 mm/h | sonnig | ||
| 05.09.2026 - 06.05Uhr | 20.7 °C | 15 °C | 69.4 % | 3.6 km/h | West-SW | 6.5 km/h | 1009.7 hPa | 0.0 mm | 0.0 mm/h | sonnig | ||
| 05.09.2026 - 06.10Uhr | 21.1 °C | 15 °C | 67.6 % | 3.2 km/h | Westen | 6.5 km/h | 1013.2 hPa | 0.0 mm | 0.0 mm/h | sonnig | ||
| 05.09.2026 - 06.15Uhr | 21.3 °C | 15 °C | 66.9 % | 3.0 km/h | Westen | 6.5 km/h | 1013.2 hPa | 0.0 mm | 0.0 mm/h | sonnig | ||
| 05.09.2026 - 06.20Uhr | 21.2 °C | 15 °C | 67.5 % | 2.2 km/h | West-SW | 4.7 km/h | 1012.5 hPa | 0.0 mm | 0.0 mm/h | sonnig | ||
| 05.09.2026 - 06.25Uhr | 21.1 °C | 15 °C | 67.8 % | 2.9 km/h | Westen | 4.7 km/h | 1012.6 hPa | 0.0 mm | 0.0 mm/h | sonnig | ||
| 05.09.2026 - 06.30Uhr | 21.2 °C | 15 °C | 68.0 % | 2.4 km/h | West-NW | 4.7 km/h | 1014.2 hPa | 0.0 mm | 0.0 mm/h | sonnig | ||
| 05.09.2026 - 06.35Uhr | 21.1 °C | 15 °C | 68.2 % | 2.4 km/h | Westen | 4.7 km/h | 1011.6 hPa | 0.0 mm | 0.0 mm/h | sonnig | ||
| 05.09.2026 - 06.40Uhr | 21.1 °C | 15 °C | 68.0 % | 2.8 km/h | West-NW | 4.7 km/h | 1013.6 hPa | 0.0 mm | 0.0 mm/h | sonnig | ||
| 05.09.2026 - 06.45Uhr | 21.0 °C | 15 °C | 68.0 % | 2.7 km/h | West-NW | 4.7 km/h | 1013.6 hPa | 0.0 mm | 0.0 mm/h | sonnig | ||
| 05.09.2026 - 06.50Uhr | 20.9 °C | 15 °C | 68.6 % | 3.5 km/h | Westen | 4.7 km/h | 1010.2 hPa | 0.0 mm | 0.0 mm/h | sonnig | ||
| 05.09.2026 - 06.55Uhr | 20.8 °C | 15 °C | 70.1 % | 3.5 km/h | Westen | 4.7 km/h | 1010.2 hPa | 0.0 mm | 0.0 mm/h | sonnig | ||
| 05.09.2026 - 07.00Uhr | 20.4 °C | 15 °C | 71.4 % | 3.4 km/h | Westen | 4.7 km/h | 1014.4 hPa | 0.0 mm | 0.0 mm/h | sonnig | ||
| 05.09.2026 - 07.05Uhr | 20.3 °C | 15 °C | 71.6 % | 3.1 km/h | Westen | 4.7 km/h | 1010.4 hPa | 0.0 mm | 0.0 mm/h | sonnig | ||
| 05.09.2026 - 07.10Uhr | 20.4 °C | 15 °C | 71.0 % | 2.5 km/h | West-NW | 4.7 km/h | 1012.0 hPa | 0.0 mm | 0.0 mm/h | sonnig |